Terminal Aerodrome Forecast
Issued by NWS

Home | Current Version | Previous Version | Text Only | Print | Product List | Glossary On
Versions: 1 2 3 4 5 6 7 8 9 10 11 12 13 14 15 16 17 18 19 20 21 22
329
FTUS44 KTSA 300644 AAA
TAFBVO
TAF AMD
KBVO 300644Z 3007/3106 26010G16KT P6SM OVC015
     FM301200 26012G20KT P6SM VCSH OVC025 PROB30 3018/3021 5SM -RA
      BKN025
     FM302100 29010KT P6SM OVC050
     FM310300 28002KT P6SM SKC=

USA.gov is the U.S. government's official web portal to all federal, state and local government web resources and services.